Time;durP1;ratioP1;P1;durP2;ratioP2;P2;SDS_P1;SDS_P2;PMS_P1;PMS_P2;Temp;Humidity;BMP_temperature;BMP_pressure;BME280_temperature;BME280_humidity;BME280_pressure;Samples;Min_cycle;Max_cycle;Signal;HPM_P1;HPM_P2
2024/03/04 00:02:17;;;;;;;66.28;32.17;;;9.10;99.90;;;;;;5026716;28;20052;-52
2024/03/04 00:04:43;;;;;;;68.97;32.90;;;9.10;99.90;;;;;;5024714;28;20039;-50
2024/03/04 00:07:08;;;;;;;61.33;29.85;;;9.10;99.90;;;;;;5024010;28;20030;-50
2024/03/04 00:09:34;;;;;;;62.55;30.02;;;9.10;99.90;;;;;;5024568;28;20084;-49
2024/03/04 00:12:01;;;;;;;61.80;29.92;;;9.10;99.90;;;;;;5023875;28;20045;-48
2024/03/04 00:14:26;;;;;;;56.20;30.38;;;9.10;99.90;;;;;;5025253;28;20108;-54
2024/03/04 00:16:52;;;;;;;62.42;31.73;;;9.10;99.90;;;;;;5023760;28;20627;-51
2024/03/04 00:19:18;;;;;;;68.07;31.30;;;9.10;99.90;;;;;;5020939;28;20033;-48
2024/03/04 00:21:47;;;;;;;65.43;29.52;;;9.00;99.90;;;;;;5027503;28;20037;-51
2024/03/04 00:24:13;;;;;;;60.05;28.95;;;9.00;99.90;;;;;;5021687;28;20060;-48
2024/03/04 00:26:40;;;;;;;61.70;31.15;;;9.10;99.90;;;;;;5025324;28;20108;-48
2024/03/04 00:29:06;;;;;;;71.90;31.80;;;9.00;99.90;;;;;;5022500;28;20468;-47
2024/03/04 00:31:32;;;;;;;60.58;28.88;;;9.00;99.90;;;;;;5020931;28;20033;-51
2024/03/04 00:33:57;;;;;;;61.17;28.08;;;9.00;99.90;;;;;;5018489;28;20041;-51
2024/03/04 00:36:26;;;;;;;59.42;28.55;;;9.00;99.90;;;;;;5021566;28;20113;-48
2024/03/04 00:38:52;;;;;;;54.95;27.15;;;9.00;99.90;;;;;;5023446;28;20040;-51
2024/03/04 00:41:25;;;;;;;59.75;27.42;;;9.00;99.90;;;;;;5025397;28;20060;-47
2024/03/04 00:43:51;;;;;;;63.35;28.73;;;9.00;99.90;;;;;;5019892;28;20033;-50
2024/03/04 00:46:17;;;;;;;57.03;27.90;;;9.00;99.90;;;;;;5008667;28;20061;-49
2024/03/04 00:48:44;;;;;;;53.90;26.60;;;9.00;99.90;;;;;;5022356;28;20064;-51
2024/03/04 00:51:12;;;;;;;51.25;24.77;;;8.90;99.90;;;;;;5020745;28;20036;-48
2024/03/04 00:53:44;;;;;;;57.78;25.75;;;8.90;99.90;;;;;;5027491;28;20028;-51
2024/03/04 00:56:11;;;;;;;62.50;27.05;;;8.90;99.90;;;;;;5022579;28;20045;-47
2024/03/04 00:58:37;;;;;;;53.63;24.30;;;8.90;99.90;;;;;;5024794;28;20034;-51
2024/03/04 01:01:03;;;;;;;56.42;25.17;;;8.90;99.90;;;;;;5027035;28;20036;-50
2024/03/04 01:03:29;;;;;;;47.15;23.95;;;8.90;99.90;;;;;;5024915;28;20041;-49
2024/03/04 01:05:55;;;;;;;52.25;24.00;;;8.90;99.90;;;;;;5025793;28;20029;-50
2024/03/04 01:08:21;;;;;;;49.08;25.08;;;8.80;99.90;;;;;;5027367;28;20498;-51
2024/03/04 01:10:47;;;;;;;45.97;22.55;;;8.80;99.90;;;;;;5024774;28;20033;-48
2024/03/04 01:15:42;;;;;;;49.75;24.77;;;8.80;99.90;;;;;;5022092;28;20073;-48
2024/03/04 01:18:10;;;;;;;53.92;24.75;;;8.80;99.90;;;;;;5028899;28;20036;-52
2024/03/04 01:20:38;;;;;;;50.97;24.13;;;8.80;99.90;;;;;;5026023;28;20025;-48
2024/03/04 01:23:04;;;;;;;49.95;24.13;;;8.80;99.90;;;;;;5026264;28;20029;-48
2024/03/04 01:25:31;;;;;;;52.33;25.55;;;8.80;99.90;;;;;;4995143;28;20048;-51
2024/03/04 01:27:57;;;;;;;46.13;25.40;;;8.80;99.90;;;;;;5007735;28;20440;-49
2024/03/04 01:30:24;;;;;;;50.70;24.88;;;8.80;99.90;;;;;;5006038;28;20043;-50
2024/03/04 01:32:50;;;;;;;50.50;23.55;;;8.70;99.90;;;;;;5003858;28;20026;-48
2024/03/04 01:35:16;;;;;;;56.97;24.60;;;8.70;99.90;;;;;;5006342;28;20037;-50
2024/03/04 01:37:43;;;;;;;50.67;24.73;;;8.70;99.90;;;;;;5002493;28;20037;-51
2024/03/04 01:40:09;;;;;;;54.65;25.42;;;8.70;99.90;;;;;;5007584;28;20415;-51
2024/03/04 01:42:34;;;;;;;52.65;25.35;;;8.70;99.90;;;;;;5006986;28;20360;-51
2024/03/04 01:45:00;;;;;;;49.70;24.95;;;8.80;99.90;;;;;;5007675;28;20121;-48
2024/03/04 01:47:26;;;;;;;54.78;26.85;;;8.70;99.90;;;;;;5007628;28;20033;-48
2024/03/04 01:49:54;;;;;;;62.40;28.27;;;8.70;99.90;;;;;;5008011;28;20033;-48
2024/03/04 01:52:20;;;;;;;53.40;26.60;;;8.70;99.90;;;;;;5007573;28;20036;-51
2024/03/04 01:54:49;;;;;;;52.03;25.70;;;8.70;99.90;;;;;;5004322;28;20038;-51
2024/03/04 01:57:17;;;;;;;59.13;25.73;;;8.70;99.90;;;;;;5007836;28;20034;-52
2024/03/04 01:59:45;;;;;;;56.30;27.50;;;8.70;99.90;;;;;;5008254;28;20026;-49
2024/03/04 02:02:11;;;;;;;55.92;26.27;;;8.70;99.90;;;;;;5006141;28;20041;-51
2024/03/04 02:04:39;;;;;;;54.80;27.20;;;8.70;99.90;;;;;;5012230;28;20041;-49
2024/03/04 02:07:06;;;;;;;59.55;26.25;;;8.60;99.90;;;;;;5005778;28;20034;-50
2024/03/04 02:09:33;;;;;;;62.40;28.73;;;8.60;99.90;;;;;;5008027;28;20766;-55
2024/03/04 02:11:59;;;;;;;62.80;27.25;;;8.60;99.90;;;;;;5005715;28;20499;-49
2024/03/04 02:14:25;;;;;;;62.22;27.73;;;8.60;99.90;;;;;;5007486;28;20030;-49
2024/03/04 02:16:50;;;;;;;63.10;27.98;;;8.60;99.90;;;;;;5006874;28;20034;-49
2024/03/04 02:19:18;;;;;;;54.33;25.50;;;8.60;99.90;;;;;;5005025;28;20084;-52
2024/03/04 02:22:00;;;;;;;62.22;27.88;;;8.50;99.90;;;;;;4995016;28;20092;-55
2024/03/04 02:24:26;;;;;;;59.20;26.10;;;8.60;99.90;;;;;;5006811;28;20126;-51
2024/03/04 02:26:52;;;;;;;57.72;27.38;;;8.60;99.90;;;;;;5008421;28;20034;-52
2024/03/04 02:29:18;;;;;;;57.70;27.50;;;8.60;99.90;;;;;;5008793;28;20034;-50
2024/03/04 02:31:45;;;;;;;61.85;27.38;;;8.50;99.90;;;;;;5008395;28;20038;-50
2024/03/04 02:34:13;;;;;;;64.65;28.67;;;8.60;99.90;;;;;;5006057;28;20060;-53
2024/03/04 02:36:40;;;;;;;61.25;29.30;;;8.50;99.90;;;;;;5006741;28;20033;-50
2024/03/04 02:39:10;;;;;;;56.38;25.95;;;8.60;99.90;;;;;;5007420;28;20058;-53
2024/03/04 02:41:39;;;;;;;58.13;26.20;;;8.50;99.90;;;;;;5006861;28;20030;-50
2024/03/04 02:44:05;;;;;;;62.05;28.27;;;8.50;99.90;;;;;;5007381;28;20487;-54
2024/03/04 02:46:30;;;;;;;63.03;28.13;;;8.50;99.90;;;;;;5010430;28;20104;-50
2024/03/04 02:48:56;;;;;;;58.47;29.55;;;8.50;99.90;;;;;;5012574;28;20030;-51
2024/03/04 02:51:21;;;;;;;69.25;31.42;;;8.50;99.90;;;;;;5009523;28;20401;-55
2024/03/04 02:53:47;;;;;;;63.45;28.65;;;8.50;99.90;;;;;;5010234;28;20034;-52
2024/03/04 02:56:13;;;;;;;63.33;30.23;;;8.50;99.90;;;;;;5010957;28;20037;-51
2024/03/04 02:58:38;;;;;;;62.33;30.25;;;8.50;99.90;;;;;;5003821;28;20372;-50
2024/03/04 03:01:04;;;;;;;67.28;28.58;;;8.50;99.90;;;;;;5003080;28;20026;-53
2024/03/04 03:03:29;;;;;;;67.30;28.48;;;8.50;99.90;;;;;;5007103;28;20703;-52
2024/03/04 03:05:55;;;;;;;62.45;30.05;;;8.50;99.90;;;;;;5010172;28;20029;-50
2024/03/04 03:08:20;;;;;;;69.90;31.30;;;8.50;99.90;;;;;;5011727;28;20045;-54
2024/03/04 03:10:46;;;;;;;63.00;30.23;;;8.50;99.90;;;;;;5012962;28;20029;-54
2024/03/04 03:13:12;;;;;;;68.45;32.00;;;8.50;99.90;;;;;;5012410;28;20030;-53
2024/03/04 03:15:38;;;;;;;64.47;28.77;;;8.50;99.90;;;;;;5010772;28;20042;-50
2024/03/04 03:18:06;;;;;;;71.22;31.70;;;8.50;99.90;;;;;;5017074;28;20079;-56
2024/03/04 03:20:32;;;;;;;69.80;30.02;;;8.50;99.90;;;;;;5009980;28;20080;-52
2024/03/04 03:22:58;;;;;;;64.15;29.55;;;8.40;99.90;;;;;;5001684;28;20410;-53
2024/03/04 03:25:23;;;;;;;68.32;31.88;;;8.50;99.90;;;;;;5006180;28;20037;-50
2024/03/04 03:27:50;;;;;;;72.70;31.20;;;8.40;99.90;;;;;;5008919;28;20479;-50
2024/03/04 03:30:15;;;;;;;66.18;30.63;;;8.40;99.90;;;;;;5013090;28;20049;-51
2024/03/04 03:32:42;;;;;;;65.82;32.03;;;8.40;99.90;;;;;;5007911;28;20574;-49
2024/03/04 03:35:08;;;;;;;63.00;29.27;;;8.40;99.90;;;;;;5008552;28;20479;-49
2024/03/04 03:37:34;;;;;;;72.05;30.35;;;8.40;99.90;;;;;;4994237;28;20034;-56
2024/03/04 03:40:00;;;;;;;65.13;29.75;;;8.40;99.90;;;;;;5009601;28;20057;-49
2024/03/04 03:42:26;;;;;;;64.95;29.65;;;8.30;99.90;;;;;;5007657;28;20057;-55
2024/03/04 03:44:51;;;;;;;60.25;28.98;;;8.30;99.90;;;;;;5008700;28;20030;-53
2024/03/04 03:47:17;;;;;;;68.03;29.38;;;8.40;99.90;;;;;;5008691;28;20036;-51
2024/03/04 03:49:43;;;;;;;68.47;30.00;;;8.40;99.90;;;;;;5009129;28;20479;-57
2024/03/04 03:52:09;;;;;;;56.20;26.02;;;8.40;99.90;;;;;;5011440;28;20022;-53
2024/03/04 03:54:35;;;;;;;62.83;27.17;;;8.40;99.90;;;;;;4993827;28;20042;-53
2024/03/04 03:57:00;;;;;;;58.75;27.70;;;8.40;99.90;;;;;;5009446;28;20026;-54
2024/03/04 03:59:26;;;;;;;61.13;28.98;;;8.30;99.90;;;;;;4987944;28;20056;-50
2024/03/04 04:01:52;;;;;;;58.72;27.63;;;8.30;99.90;;;;;;5008125;28;20022;-54
2024/03/04 04:04:17;;;;;;;60.00;27.05;;;8.40;99.90;;;;;;4986535;28;20014;-50
2024/03/04 04:06:43;;;;;;;57.95;26.67;;;8.30;99.90;;;;;;5008026;28;20424;-50
2024/03/04 04:09:09;;;;;;;53.20;24.75;;;8.30;99.90;;;;;;5008058;28;20033;-50
2024/03/04 04:11:34;;;;;;;57.05;24.92;;;8.20;99.90;;;;;;5006289;28;20109;-50
2024/03/04 04:14:00;;;;;;;54.33;26.00;;;8.20;99.90;;;;;;5009100;28;20049;-49
2024/03/04 04:16:29;;;;;;;54.38;26.13;;;8.20;99.90;;;;;;5009940;28;20022;-51
2024/03/04 04:18:54;;;;;;;53.22;24.88;;;8.20;99.90;;;;;;5008481;28;20026;-49
2024/03/04 04:21:21;;;;;;;43.50;22.80;;;8.20;99.90;;;;;;5008556;28;20041;-52
2024/03/04 04:23:46;;;;;;;51.70;25.67;;;8.10;99.90;;;;;;5008491;28;20368;-50
2024/03/04 04:26:12;;;;;;;51.97;24.58;;;8.10;99.90;;;;;;5014893;28;20049;-49
2024/03/04 04:28:38;;;;;;;47.80;24.70;;;8.10;99.90;;;;;;5008441;28;20045;-50
2024/03/04 04:31:03;;;;;;;49.33;24.17;;;8.10;99.90;;;;;;4998989;28;20046;-49
2024/03/04 04:33:29;;;;;;;49.65;23.50;;;8.00;99.90;;;;;;5009409;28;20483;-52
2024/03/04 04:35:54;;;;;;;54.92;24.20;;;8.00;99.90;;;;;;5006329;28;20103;-49
2024/03/04 04:38:20;;;;;;;58.25;23.95;;;8.00;99.90;;;;;;5009633;28;20065;-53
2024/03/04 04:40:49;;;;;;;49.53;22.38;;;8.00;99.90;;;;;;5006720;28;20045;-50
2024/03/04 04:43:15;;;;;;;45.10;21.90;;;8.00;99.90;;;;;;5008722;28;20033;-49
2024/03/04 04:45:40;;;;;;;41.97;21.42;;;7.90;99.90;;;;;;5007985;28;20030;-51
2024/03/04 04:48:06;;;;;;;42.00;21.27;;;7.90;99.90;;;;;;5008653;28;20167;-50
2024/03/04 04:50:32;;;;;;;50.08;19.83;;;7.90;99.90;;;;;;5008763;28;20053;-51
2024/03/04 04:52:57;;;;;;;42.28;21.40;;;7.90;99.90;;;;;;5008186;28;20391;-52
2024/03/04 04:55:23;;;;;;;38.92;19.52;;;7.90;99.90;;;;;;5008844;28;20041;-52
2024/03/04 04:57:48;;;;;;;40.67;19.40;;;7.90;99.90;;;;;;5008763;28;20104;-50
2024/03/04 05:00:14;;;;;;;42.10;18.25;;;7.90;99.90;;;;;;5007305;28;20026;-49
2024/03/04 05:02:40;;;;;;;38.70;18.75;;;7.90;99.90;;;;;;5002117;28;20069;-49
2024/03/04 05:05:06;;;;;;;32.00;17.02;;;7.90;99.90;;;;;;4991160;28;20379;-50
2024/03/04 05:07:32;;;;;;;34.85;17.55;;;7.90;99.90;;;;;;5007813;28;20438;-50
2024/03/04 05:09:57;;;;;;;31.00;17.40;;;7.90;99.90;;;;;;5008256;28;20025;-49
2024/03/04 05:12:23;;;;;;;44.65;20.02;;;7.90;99.90;;;;;;5007108;28;20026;-50
2024/03/04 05:14:49;;;;;;;34.28;17.67;;;7.80;99.90;;;;;;5007195;28;21871;-49
2024/03/04 05:17:14;;;;;;;32.63;17.33;;;7.80;99.90;;;;;;5008433;28;20056;-50
2024/03/04 05:19:40;;;;;;;33.95;16.75;;;7.80;99.90;;;;;;5012326;28;20483;-50
2024/03/04 05:22:07;;;;;;;37.72;16.33;;;7.80;99.90;;;;;;5005713;28;20101;-49
2024/03/04 05:24:32;;;;;;;39.45;17.58;;;7.80;99.90;;;;;;5011405;28;20467;-50
2024/03/04 05:26:58;;;;;;;35.50;16.90;;;7.80;99.90;;;;;;5009430;28;20022;-50
2024/03/04 05:29:24;;;;;;;39.53;16.52;;;7.80;99.90;;;;;;5010043;28;20034;-50
2024/03/04 05:31:55;;;;;;;36.33;16.48;;;7.80;99.90;;;;;;5008499;28;20420;-55
2024/03/04 05:34:21;;;;;;;34.88;17.58;;;7.80;99.90;;;;;;4997159;28;20033;-51
2024/03/04 05:36:48;;;;;;;33.47;16.10;;;7.80;99.90;;;;;;4991549;28;20062;-52
2024/03/04 05:39:18;;;;;;;28.40;15.60;;;7.80;99.90;;;;;;5007110;28;20029;-51
2024/03/04 05:41:45;;;;;;;29.80;13.80;;;7.80;99.90;;;;;;5006552;28;20018;-52
2024/03/04 05:44:10;;;;;;;31.35;13.27;;;7.90;99.90;;;;;;5007197;28;20029;-50
2024/03/04 05:46:36;;;;;;;35.33;13.90;;;7.90;99.90;;;;;;5008243;28;20049;-49
2024/03/04 05:49:03;;;;;;;26.50;12.07;;;7.80;99.90;;;;;;5007347;28;20105;-54
2024/03/04 05:51:29;;;;;;;24.42;12.13;;;7.90;99.90;;;;;;5006980;28;20063;-49
2024/03/04 05:53:54;;;;;;;24.92;10.35;;;7.80;99.90;;;;;;5006907;28;20060;-49
2024/03/04 05:56:20;;;;;;;23.75;11.68;;;7.80;99.90;;;;;;5007553;28;20451;-49
2024/03/04 05:58:45;;;;;;;26.30;11.57;;;7.80;99.90;;;;;;5008279;28;20491;-52
2024/03/04 06:01:13;;;;;;;21.67;11.57;;;7.90;99.90;;;;;;5005586;28;20030;-50
2024/03/04 06:03:39;;;;;;;24.05;10.98;;;7.90;99.90;;;;;;5007774;28;20499;-52
2024/03/04 06:06:05;;;;;;;25.30;11.70;;;7.90;99.90;;;;;;5007701;28;20064;-50
2024/03/04 06:08:32;;;;;;;24.73;11.90;;;7.80;99.90;;;;;;5007114;28;20156;-54
2024/03/04 06:10:58;;;;;;;22.05;11.80;;;7.90;99.90;;;;;;5005062;28;20026;-53
2024/03/04 06:13:23;;;;;;;19.75;9.98;;;7.80;99.90;;;;;;5006330;28;20096;-50
2024/03/04 06:15:49;;;;;;;24.98;11.57;;;7.80;99.90;;;;;;5007260;28;20033;-51
2024/03/04 06:18:15;;;;;;;24.60;11.68;;;7.80;99.90;;;;;;5008438;28;20041;-52
2024/03/04 06:20:41;;;;;;;24.25;11.68;;;7.80;99.90;;;;;;5010793;28;20109;-53
2024/03/04 06:23:06;;;;;;;24.15;11.30;;;7.80;99.90;;;;;;5009111;28;20045;-50
2024/03/04 06:25:32;;;;;;;32.20;12.40;;;7.80;99.90;;;;;;5010721;28;20495;-50
2024/03/04 06:28:00;;;;;;;26.52;12.00;;;7.90;99.90;;;;;;5011070;28;20022;-53
2024/03/04 06:30:26;;;;;;;27.33;11.38;;;7.80;99.90;;;;;;5011184;28;20475;-53
2024/03/04 06:32:51;;;;;;;25.70;10.43;;;7.80;99.90;;;;;;5011732;28;20034;-52
2024/03/04 06:35:17;;;;;;;19.48;10.95;;;7.80;99.90;;;;;;5010858;28;20033;-54
2024/03/04 06:37:43;;;;;;;21.27;11.05;;;7.80;99.90;;;;;;4994199;28;20076;-54
2024/03/04 06:40:09;;;;;;;22.67;12.05;;;7.80;99.90;;;;;;5010321;28;20022;-53
2024/03/04 06:42:35;;;;;;;22.42;11.63;;;7.80;99.90;;;;;;5010372;28;20436;-51
2024/03/04 06:45:00;;;;;;;24.95;11.10;;;7.80;99.90;;;;;;5010846;28;20068;-49
2024/03/04 06:47:26;;;;;;;24.00;12.50;;;7.70;99.90;;;;;;5011847;28;20746;-52
2024/03/04 06:49:51;;;;;;;30.30;11.95;;;7.70;99.90;;;;;;5012145;28;20036;-53
2024/03/04 06:52:17;;;;;;;32.97;13.38;;;7.80;99.90;;;;;;5010923;28;20025;-54
2024/03/04 06:54:43;;;;;;;32.42;13.85;;;7.80;99.90;;;;;;5010130;28;20037;-49
2024/03/04 06:57:10;;;;;;;26.23;12.30;;;7.80;99.90;;;;;;5011082;28;20046;-50
2024/03/04 06:59:36;;;;;;;28.75;11.88;;;7.80;99.90;;;;;;5011121;28;20026;-50
2024/03/04 07:02:01;;;;;;;25.45;11.68;;;7.80;99.90;;;;;;5008129;28;20041;-49
2024/03/04 07:04:27;;;;;;;25.83;12.02;;;7.80;99.90;;;;;;5008367;28;20118;-52
2024/03/04 07:06:52;;;;;;;24.60;12.73;;;7.80;99.90;;;;;;5011095;28;20054;-51
2024/03/04 07:09:18;;;;;;;24.48;12.13;;;7.80;99.90;;;;;;5010833;28;20021;-49
2024/03/04 07:11:43;;;;;;;28.25;12.98;;;7.80;99.90;;;;;;5009461;28;20041;-54
2024/03/04 07:14:09;;;;;;;32.88;12.70;;;7.80;99.90;;;;;;5009697;28;20058;-53
2024/03/04 07:16:35;;;;;;;24.85;12.68;;;7.80;99.90;;;;;;4994957;28;20129;-51
2024/03/04 07:19:00;;;;;;;22.55;12.88;;;7.90;99.90;;;;;;5009876;28;20129;-53
2024/03/04 07:21:26;;;;;;;29.98;13.57;;;7.80;99.90;;;;;;5013564;28;20037;-55
2024/03/04 07:23:51;;;;;;;26.10;12.65;;;7.80;99.90;;;;;;5004899;28;20022;-54
2024/03/04 07:26:19;;;;;;;25.60;12.23;;;7.80;99.90;;;;;;4989694;28;20107;-54
2024/03/04 07:28:45;;;;;;;33.80;14.13;;;7.80;99.90;;;;;;5010093;28;20018;-53
2024/03/04 07:31:11;;;;;;;30.85;13.43;;;7.90;99.90;;;;;;5012941;28;20026;-55
2024/03/04 07:33:37;;;;;;;35.33;13.85;;;7.90;99.90;;;;;;5000076;28;20045;-52
2024/03/04 07:36:04;;;;;;;27.75;13.52;;;7.90;99.90;;;;;;5008340;28;20478;-57
2024/03/04 07:38:29;;;;;;;30.23;13.27;;;7.90;99.90;;;;;;4999717;28;20065;-53
2024/03/04 07:40:55;;;;;;;29.73;15.07;;;7.90;99.90;;;;;;4996661;28;20041;-53
2024/03/04 07:43:21;;;;;;;30.30;13.63;;;7.90;99.90;;;;;;4991686;28;20030;-54
2024/03/04 07:45:47;;;;;;;31.02;13.45;;;7.90;99.90;;;;;;5010227;28;20033;-55
2024/03/04 07:48:12;;;;;;;31.23;14.07;;;7.90;99.90;;;;;;5013296;28;20034;-56
2024/03/04 07:50:38;;;;;;;28.45;13.20;;;7.90;99.90;;;;;;5005279;28;20022;-56
2024/03/04 07:53:03;;;;;;;26.40;13.95;;;7.90;99.90;;;;;;5012986;28;20037;-53
2024/03/04 07:55:29;;;;;;;26.67;14.05;;;7.90;99.90;;;;;;5012599;28;20038;-55
2024/03/04 07:57:54;;;;;;;29.10;14.13;;;7.90;99.90;;;;;;4997404;28;20261;-53
2024/03/04 08:00:20;;;;;;;42.75;19.00;;;7.90;99.90;;;;;;5003523;28;20018;-53
2024/03/04 08:02:46;;;;;;;32.13;13.52;;;8.00;99.90;;;;;;5009593;28;20480;-56
2024/03/04 08:05:12;;;;;;;22.55;12.23;;;8.10;99.90;;;;;;5013054;28;20073;-56
2024/03/04 08:07:38;;;;;;;35.58;16.05;;;8.10;99.90;;;;;;5012641;28;20105;-56
2024/03/04 08:10:06;;;;;;;26.65;13.77;;;8.10;99.90;;;;;;5012630;28;20034;-54
2024/03/04 08:12:33;;;;;;;31.45;14.30;;;8.20;99.90;;;;;;5007813;28;20041;-56
2024/03/04 08:14:58;;;;;;;34.20;17.02;;;8.20;99.90;;;;;;5006474;28;20037;-53
2024/03/04 08:17:26;;;;;;;27.27;13.73;;;8.20;99.90;;;;;;5002449;28;20038;-54
2024/03/04 08:19:54;;;;;;;28.77;12.95;;;8.10;99.90;;;;;;5001990;28;20018;-55
2024/03/04 08:22:20;;;;;;;25.27;12.23;;;8.10;99.90;;;;;;5012396;28;20030;-55
2024/03/04 08:24:46;;;;;;;28.55;12.48;;;8.10;99.90;;;;;;5012160;28;20034;-57
2024/03/04 08:27:11;;;;;;;26.58;12.52;;;8.10;99.90;;;;;;5008334;28;20407;-55
2024/03/04 08:29:37;;;;;;;29.00;14.48;;;8.20;99.90;;;;;;5012292;28;20029;-52
2024/03/04 08:32:04;;;;;;;25.45;12.93;;;8.20;99.90;;;;;;5009132;28;20030;-57
2024/03/04 08:34:31;;;;;;;24.83;13.07;;;8.30;99.90;;;;;;5001160;28;20042;-57
2024/03/04 08:36:57;;;;;;;25.67;12.50;;;8.40;99.90;;;;;;5010794;28;20387;-57
2024/03/04 08:39:22;;;;;;;24.45;12.38;;;8.50;99.90;;;;;;4998028;28;20026;-54
2024/03/04 08:41:48;;;;;;;30.67;14.75;;;8.50;99.90;;;;;;5006436;28;20026;-54
2024/03/04 08:44:14;;;;;;;30.33;16.17;;;8.60;99.90;;;;;;5011365;28;20032;-57
2024/03/04 08:46:40;;;;;;;25.70;13.13;;;8.70;99.90;;;;;;5003552;28;20068;-54
2024/03/04 08:49:05;;;;;;;25.77;12.10;;;8.70;99.90;;;;;;5007519;28;20054;-57
2024/03/04 08:51:32;;;;;;;26.05;11.80;;;8.70;99.90;;;;;;5001354;28;20053;-54
2024/03/04 08:53:58;;;;;;;21.55;11.40;;;8.60;99.90;;;;;;5008435;28;20026;-57
2024/03/04 08:56:24;;;;;;;21.67;11.25;;;8.50;99.90;;;;;;4996397;28;20025;-56
2024/03/04 08:58:50;;;;;;;22.92;11.32;;;8.60;99.90;;;;;;5011636;28;20492;-54
2024/03/04 09:01:17;;;;;;;24.83;12.10;;;8.60;99.90;;;;;;5011400;28;20040;-57
2024/03/04 09:03:43;;;;;;;29.60;12.90;;;8.60;99.90;;;;;;5011128;28;20391;-57
2024/03/04 09:06:18;;;;;;;23.38;11.90;;;8.60;99.90;;;;;;5011854;28;20026;-56
2024/03/04 09:08:43;;;;;;;27.15;12.38;;;8.60;99.90;;;;;;5011235;28;20030;-56
2024/03/04 09:11:10;;;;;;;25.58;12.32;;;8.60;99.90;;;;;;4993927;28;20037;-56
2024/03/04 09:13:36;;;;;;;26.73;12.02;;;8.70;99.90;;;;;;5011288;28;20503;-55
2024/03/04 09:16:05;;;;;;;23.40;12.90;;;8.70;99.90;;;;;;5011458;28;20026;-56
2024/03/04 09:18:31;;;;;;;30.52;12.63;;;8.70;99.90;;;;;;5011175;28;20029;-57
2024/03/04 09:20:57;;;;;;;23.40;12.57;;;8.80;99.90;;;;;;5011547;28;20069;-57
2024/03/04 09:23:24;;;;;;;22.73;12.90;;;8.80;99.90;;;;;;5011576;28;20460;-58
2024/03/04 09:25:49;;;;;;;36.65;14.70;;;8.80;99.90;;;;;;5011405;28;20471;-56
2024/03/04 09:28:15;;;;;;;32.83;15.45;;;8.80;99.90;;;;;;5004973;28;20064;-55
2024/03/04 09:30:41;;;;;;;32.58;14.25;;;8.80;99.90;;;;;;4999546;28;20499;-55
2024/03/04 09:33:11;;;;;;;27.58;14.82;;;8.80;99.90;;;;;;5010735;28;20030;-56
2024/03/04 09:35:37;;;;;;;28.92;15.27;;;8.80;99.90;;;;;;5011253;28;20711;-55
2024/03/04 09:38:03;;;;;;;28.77;15.50;;;8.80;99.90;;;;;;4990832;28;20385;-57
2024/03/04 09:40:28;;;;;;;32.83;15.07;;;8.80;99.90;;;;;;5010984;28;20026;-58
2024/03/04 09:42:56;;;;;;;30.90;14.95;;;8.80;99.90;;;;;;5011118;28;20045;-55
2024/03/04 09:45:24;;;;;;;28.70;14.65;;;8.80;99.90;;;;;;5010934;28;20052;-56
2024/03/04 09:47:54;;;;;;;26.95;14.23;;;8.80;99.90;;;;;;5011104;28;20022;-56
2024/03/04 09:50:21;;;;;;;27.52;14.27;;;8.80;99.90;;;;;;5011084;28;20026;-55
2024/03/04 09:52:49;;;;;;;34.63;15.70;;;8.80;99.90;;;;;;4999205;28;20022;-56
2024/03/04 09:55:15;;;;;;;30.65;16.75;;;8.90;99.90;;;;;;5003555;28;20014;-55
2024/03/04 09:57:41;;;;;;;29.67;15.55;;;8.90;99.90;;;;;;4998678;28;20388;-57
2024/03/04 10:00:13;;;;;;;30.30;16.17;;;8.80;99.90;;;;;;5004852;28;20023;-57
2024/03/04 10:02:45;;;;;;;34.17;17.27;;;8.90;99.90;;;;;;5003910;28;20027;-57
2024/03/04 10:05:12;;;;;;;32.72;14.38;;;9.00;99.90;;;;;;4998819;28;20071;-55
2024/03/04 10:07:38;;;;;;;29.83;16.20;;;9.00;99.90;;;;;;4995852;28;20023;-57
2024/03/04 10:10:05;;;;;;;24.17;14.50;;;9.00;99.90;;;;;;5010453;28;20466;-54
2024/03/04 10:12:31;;;;;;;31.08;14.43;;;9.00;99.90;;;;;;4992398;28;20889;-56
2024/03/04 10:15:10;;;;;;;35.50;15.82;;;9.00;99.90;;;;;;5001272;28;20080;-57
2024/03/04 10:17:39;;;;;;;28.30;13.38;;;9.00;99.90;;;;;;5010693;28;20372;-57
2024/03/04 10:20:06;;;;;;;25.23;12.70;;;9.00;99.90;;;;;;5010891;28;20077;-57
2024/03/04 10:22:37;;;;;;;23.20;12.50;;;9.00;99.90;;;;;;4993206;28;20037;-55
2024/03/04 10:25:04;;;;;;;25.77;11.65;;;9.00;99.90;;;;;;5010746;28;20026;-56
2024/03/04 10:27:35;;;;;;;24.83;11.23;;;9.10;99.90;;;;;;5010819;28;20060;-54
2024/03/04 10:30:11;;;;;;;22.00;12.05;;;9.10;99.90;;;;;;5004555;28;20077;-53
2024/03/04 10:32:45;;;;;;;25.70;10.77;;;9.00;99.90;;;;;;4999872;28;20033;-55
2024/03/04 10:35:10;;;;;;;21.63;9.65;;;9.00;99.90;;;;;;4996846;28;20068;-52
2024/03/04 10:37:36;;;;;;;24.38;11.50;;;9.00;99.90;;;;;;5003534;28;20042;-56
2024/03/04 10:40:04;;;;;;;24.90;12.77;;;9.00;99.90;;;;;;4993030;28;20125;-55
2024/03/04 10:42:29;;;;;;;22.60;12.18;;;9.00;99.90;;;;;;5000258;28;20018;-57
2024/03/04 10:44:57;;;;;;;22.63;12.50;;;9.00;99.90;;;;;;5010448;28;20018;-55
2024/03/04 10:47:23;;;;;;;21.92;12.55;;;8.90;99.90;;;;;;5005406;28;20042;-57
2024/03/04 10:49:50;;;;;;;26.25;14.88;;;9.00;99.90;;;;;;4996895;28;20030;-57
2024/03/04 10:52:16;;;;;;;26.73;14.73;;;8.90;99.90;;;;;;5010310;28;20034;-54
2024/03/04 10:54:42;;;;;;;27.50;14.80;;;8.90;99.90;;;;;;5009996;28;20025;-54
2024/03/04 10:57:18;;;;;;;28.40;13.85;;;8.90;99.90;;;;;;5003060;28;20053;-54
2024/03/04 10:59:48;;;;;;;27.70;14.55;;;8.90;99.90;;;;;;5010629;28;20030;-57
2024/03/04 11:02:24;;;;;;;24.50;11.70;;;8.90;99.90;;;;;;5010206;28;20018;-55
2024/03/04 11:04:54;;;;;;;24.45;12.02;;;8.90;99.90;;;;;;5002986;28;20494;-55
2024/03/04 11:07:23;;;;;;;25.17;11.63;;;8.90;99.90;;;;;;5006887;28;20557;-56
2024/03/04 11:09:53;;;;;;;22.48;11.15;;;9.00;99.90;;;;;;5002271;28;20022;-55
2024/03/04 11:12:22;;;;;;;20.80;10.98;;;9.00;99.90;;;;;;4998695;28;20038;-58
2024/03/04 11:15:02;;;;;;;26.48;9.73;;;9.00;99.90;;;;;;5013339;28;20555;-57
2024/03/04 11:17:33;;;;;;;21.33;10.23;;;9.00;99.90;;;;;;5013472;28;20030;-57
2024/03/04 11:20:03;;;;;;;16.95;9.55;;;9.00;99.90;;;;;;5004133;28;20069;-53
2024/03/04 11:22:30;;;;;;;18.52;10.02;;;9.10;99.90;;;;;;5009006;28;20018;-56
2024/03/04 11:24:56;;;;;;;20.13;9.25;;;9.10;99.90;;;;;;5009087;28;20811;-54
2024/03/04 11:27:23;;;;;;;17.55;8.70;;;9.00;99.90;;;;;;5013409;28;20040;-55
2024/03/04 11:29:50;;;;;;;17.80;9.68;;;9.00;99.90;;;;;;5013594;28;20499;-57
2024/03/04 11:32:26;;;;;;;17.65;8.48;;;9.10;99.90;;;;;;5004090;28;20076;-57
2024/03/04 11:35:12;;;;;;;18.77;8.80;;;9.10;99.90;;;;;;5013282;28;20080;-56
2024/03/04 11:37:52;;;;;;;24.23;8.82;;;9.10;99.90;;;;;;5012760;28;20044;-58
2024/03/04 11:40:18;;;;;;;18.25;9.43;;;9.20;99.90;;;;;;5000091;28;20574;-57
2024/03/04 11:42:46;;;;;;;20.20;9.52;;;9.20;99.90;;;;;;5013163;28;20037;-57
2024/03/04 11:45:22;;;;;;;18.38;9.63;;;9.20;99.90;;;;;;5013084;28;20479;-54
2024/03/04 11:47:49;;;;;;;18.10;9.23;;;9.10;99.90;;;;;;5013690;28;20762;-54
2024/03/04 11:50:37;;;;;;;19.58;8.93;;;9.10;99.90;;;;;;5010104;28;20030;-59
2024/03/04 11:53:03;;;;;;;18.88;8.38;;;9.10;99.90;;;;;;4994014;28;20038;-56
2024/03/04 11:55:29;;;;;;;16.35;8.45;;;9.10;99.90;;;;;;5011252;28;20022;-58
2024/03/04 11:57:55;;;;;;;14.25;8.63;;;9.10;99.90;;;;;;5005595;28;20395;-57
2024/03/04 12:00:22;;;;;;;17.27;8.95;;;9.20;99.90;;;;;;4993111;28;20031;-54
2024/03/04 12:03:01;;;;;;;14.43;8.02;;;9.30;99.90;;;;;;5005772;28;20502;-56
2024/03/04 12:05:27;;;;;;;17.27;9.05;;;9.40;99.90;;;;;;5003435;28;20030;-54
2024/03/04 12:07:53;;;;;;;18.85;9.32;;;9.40;99.90;;;;;;5007307;28;20041;-55
2024/03/04 12:10:18;;;;;;;18.98;8.80;;;9.40;99.90;;;;;;5011575;28;20026;-57
2024/03/04 12:12:44;;;;;;;17.33;9.23;;;9.50;99.90;;;;;;5012806;28;20072;-58
2024/03/04 12:15:09;;;;;;;16.67;9.35;;;9.40;99.90;;;;;;5004775;28;20033;-57
2024/03/04 12:17:37;;;;;;;18.27;9.52;;;9.40;99.90;;;;;;5010856;28;20507;-56
2024/03/04 12:20:03;;;;;;;16.80;9.23;;;9.60;99.90;;;;;;5012817;28;20426;-55
2024/03/04 12:22:29;;;;;;;19.67;10.40;;;9.50;99.90;;;;;;5010366;28;20030;-54
2024/03/04 12:25:09;;;;;;;17.40;10.38;;;9.50;99.90;;;;;;5003075;28;20532;-57
2024/03/04 12:27:35;;;;;;;23.65;11.48;;;9.60;99.90;;;;;;5005627;28;20023;-58
2024/03/04 12:30:16;;;;;;;20.80;11.68;;;9.50;99.90;;;;;;4998095;28;20022;-56
2024/03/04 12:32:43;;;;;;;21.42;13.20;;;9.50;99.90;;;;;;5012608;28;20541;-56
2024/03/04 12:35:16;;;;;;;24.08;10.23;;;9.60;99.90;;;;;;5004040;28;20022;-56
2024/03/04 12:37:43;;;;;;;15.60;9.00;;;9.50;99.90;;;;;;5008318;28;20044;-55
2024/03/04 12:40:10;;;;;;;17.70;10.23;;;9.50;99.90;;;;;;4997545;28;20045;-53